Ocean Hope — 3EWD6 — position and weather

sailwx.info

Track history (hours):
 
Tides and Currents Weather Stations Pressure Air Temp Water Temp Dewpoint Dewpoint Depression Visibility Wind Speed Wind Dir Waves Ship Positions

Ocean Hope

Last reported at 2017-Oct-14 17:43 UTC. Time now 2017-Oct-19 11:13 UTC.
Position N 27°34' W 015°16'.

Length 181 m; draft 7.8 m.

Type: Cargo ship. MMSI: 373402000.

Date/timePositionNaut miles runAvg speedWind from/ knotsBaromVisibWave heightAir tempDewpointWater temp
2017-Oct-14 17:43N 27°34' W 015°16'312.1
2017-Oct-14 17:30N 27°36' W 015°15'612.3
2017-Oct-14 17:00N 27°42' W 015°12'612.5
2017-Oct-14 16:30N 27°48' W 015°10'612.9
2017-Oct-14 16:00N 27°54' W 015°07'612.9
2017-Oct-14 15:30N 28°00' W 015°06'5 9.8
2017-Oct-14 15:00N 28°04' W 015°10'611.8
2017-Oct-14 14:30N 28°05' W 015°16'611.2
2017-Oct-14 14:00N 28°06' W 015°22'2 3.7
2017-Oct-14 13:28N 28°07' W 015°24'0 0.1
2017-Oct-14 12:58N 28°07' W 015°24'0 0.1
2017-Oct-14 12:28N 28°07' W 015°25'0 0.1
2017-Oct-14 11:58N 28°07' W 015°24'0 0.1
2017-Oct-14 11:28N 28°07' W 015°25'0 0.1
2017-Oct-14 10:58N 28°07' W 015°24'0 0.1
2017-Oct-14 10:28N 28°07' W 015°25'0 0.1
2017-Oct-14 09:58N 28°07' W 015°24'0 0.3
2017-Oct-14 09:28N 28°07' W 015°24'0 0.2
2017-Oct-14 08:58N 28°07' W 015°24'1 1.5
2017-Oct-14 08:30N 28°07' W 015°24'1 2.6
2017-Oct-14 08:00N 28°07' W 015°22'0 0.1
2017-Oct-14 07:30N 28°07' W 015°22'1 1.5
2017-Oct-14 07:00N 28°07' W 015°21'2 3.2
2017-Oct-14 06:30N 28°07' W 015°20'4 7.2
2017-Oct-14 06:00N 28°07' W 015°16'4 7.7
2017-Oct-14 05:30N 28°07' W 015°11'4 7.4
2017-Oct-14 05:00N 28°07' W 015°07'4 7.3
2017-Oct-14 04:30N 28°07' W 015°03'5 9.2
2017-Oct-14 04:00N 28°10' W 014°59'4 8.6
2017-Oct-14 03:30N 28°14' W 014°57'5 9.3
2017-Oct-14 03:00N 28°18' W 014°55'612.3
2017-Oct-14 02:30N 28°24' W 014°53'612.4
2017-Oct-14 02:00N 28°30' W 014°51'612.5
2017-Oct-14 01:30N 28°36' W 014°48'612.6
2017-Oct-14 01:00N 28°42' W 014°46'612.6
2017-Oct-14 00:30N 28°48' W 014°44'612.8
2017-Oct-14 00:00N 28°54' W 014°41'612.7
2017-Oct-13 23:30N 28°60' W 014°38'612.6
2017-Oct-13 23:00N 29°06' W 014°36'612.4
2017-Oct-13 22:30N 29°12' W 014°33'612.4
2017-Oct-13 22:00N 29°17' W 014°31'612.1
2017-Oct-13 21:30N 29°23' W 014°29'611.9
2017-Oct-13 21:00N 29°29' W 014°26'612.0
2017-Oct-13 20:28N 29°35' W 014°24'612.1
2017-Oct-13 19:57N 29°41' W 014°21'512.0
2017-Oct-13 19:30N 29°46' W 014°19'611.9
2017-Oct-13 19:00N 29°51' W 014°17'611.8
2017-Oct-13 18:30N 29°57' W 014°15'611.6
2017-Oct-13 18:00N 30°02' W 014°12'611.5
2017-Oct-13 17:30N 30°08' W 014°10'611.5
2017-Oct-13 17:00N 30°13' W 014°08'611.5
2017-Oct-13 16:30N 30°18' W 014°05'611.5
2017-Oct-13 16:00N 30°24' W 014°03'611.6
2017-Oct-13 15:30N 30°29' W 014°01'611.6
2017-Oct-13 15:00N 30°35' W 013°59'611.5
2017-Oct-13 14:30N 30°40' W 013°56'611.4
2017-Oct-13 14:00N 30°45' W 013°54'611.5
2017-Oct-13 13:30N 30°51' W 013°52'18212.2
2017-Oct-12 22:37N 33°42' W 012°38'112.3
2017-Oct-12 22:30N 33°43' W 012°38'712.4
2017-Oct-12 21:57N 33°50' W 012°35'21112.1
2017-Oct-12 04:26N 37°04' W 010°53'512.1
2017-Oct-12 04:00N 37°09' W 010°51'2512.2
2017-Oct-12 01:57N 37°33' W 010°44'511.9
2017-Oct-12 01:30N 37°38' W 010°43'1711.7
2017-Oct-12 00:03N 37°55' W 010°37'111.7
2017-Oct-12 00:00N 37°56' W 010°37'611.6
2017-Oct-11 23:31N 38°01' W 010°35'611.5
2017-Oct-11 23:00N 38°07' W 010°34'611.7
2017-Oct-11 22:30N 38°12' W 010°32'612.2
2017-Oct-11 22:00N 38°18' W 010°30'612.6
2017-Oct-11 21:30N 38°24' W 010°28'612.4
2017-Oct-11 21:01N 38°30' W 010°26'612.5
2017-Oct-11 20:30N 38°36' W 010°24'612.4
2017-Oct-11 20:00N 38°42' W 010°22'612.6
2017-Oct-11 19:30N 38°48' W 010°21'713.1
2017-Oct-11 19:01N 38°55' W 010°18'713.6
2017-Oct-11 18:31N 39°01' W 010°15'612.5
2017-Oct-11 18:00N 39°07' W 010°12'612.0
2017-Oct-11 17:30N 39°12' W 010°09'612.1
2017-Oct-11 17:00N 39°18' W 010°06'103 2.1
2017-Oct-09 14:51N 40°39' W 008°43'0 0.0
2017-Oct-09 14:27N 40°39' W 008°43'0 0.0
2017-Oct-09 14:00N 40°39' W 008°43'0 0.0
2017-Oct-09 13:27N 40°39' W 008°43'0 0.0
2017-Oct-09 13:00N 40°39' W 008°43'0 0.0
2017-Oct-09 12:27N 40°39' W 008°43'  
2017-Oct-07 01:59N 40°41' W 008°49'0 0.0
2017-Oct-06 21:59N 40°41' W 008°49'0 0.1
2017-Oct-06 21:29N 40°41' W 008°49'1 0.3
2017-Oct-06 19:01N 40°40' W 008°48'0 4.6
2017-Oct-06 19:00N 40°40' W 008°48'9 9.1
2017-Oct-06 18:00N 40°32' W 008°54'612.0
2017-Oct-06 17:30N 40°27' W 008°59'611.9
2017-Oct-06 17:00N 40°22' W 009°04'711.8
2017-Oct-06 16:25N 40°17' W 009°09'512.1
2017-Oct-06 16:00N 40°13' W 009°13'612.1
2017-Oct-06 15:30N 40°08' W 009°17'612.2
2017-Oct-06 15:00N 40°03' W 009°22'612.0
2017-Oct-06 14:30N 39°58' W 009°27'612.2
2017-Oct-06 14:00N 39°53' W 009°31'612.4
2017-Oct-06 13:30N 39°48' W 009°36'612.2
2017-Oct-06 13:00N 39°43' W 009°39'612.4
2017-Oct-06 12:30N 39°37' W 009°43'612.3
2017-Oct-06 12:00N 39°31' W 009°45'612.1
2017-Oct-06 11:30N 39°26' W 009°48'611.8
2017-Oct-06 11:00N 39°20' W 009°51'612.0
2017-Oct-06 10:30N 39°14' W 009°51'611.8
2017-Oct-06 10:00N 39°08' W 009°51'611.8
2017-Oct-06 09:30N 39°02' W 009°51'611.9
2017-Oct-06 09:00N 38°56' W 009°51'611.4
2017-Oct-06 08:30N 38°51' W 009°51'611.5
2017-Oct-06 08:00N 38°45' W 009°51'611.7
2017-Oct-06 07:30N 38°39' W 009°50'611.9
2017-Oct-06 07:00N 38°33' W 009°49'611.5
2017-Oct-06 06:30N 38°28' W 009°48'611.8
2017-Oct-06 06:00N 38°22' W 009°46'611.8
2017-Oct-06 05:30N 38°16' W 009°44'611.8
2017-Oct-06 05:00N 38°10' W 009°42'611.9
2017-Oct-06 04:30N 38°05' W 009°40'611.9
2017-Oct-06 04:00N 37°59' W 009°39'612.0
2017-Oct-06 03:30N 37°53' W 009°37'612.0
2017-Oct-06 03:00N 37°47' W 009°35'612.0
2017-Oct-06 02:30N 37°41' W 009°34'612.0
2017-Oct-06 02:00N 37°35' W 009°32'612.1
2017-Oct-06 01:30N 37°30' W 009°30'612.2
2017-Oct-06 01:00N 37°24' W 009°28'611.8
2017-Oct-06 00:30N 37°18' W 009°27'611.7
2017-Oct-06 00:00N 37°12' W 009°25'611.7
2017-Oct-05 23:30N 37°06' W 009°24'611.5
2017-Oct-05 23:00N 37°01' W 009°21'611.0
2017-Oct-05 22:30N 36°56' W 009°20'510.5
2017-Oct-05 22:00N 36°51' W 009°16'611.1
2017-Oct-05 21:30N 36°47' W 009°12'510.8
2017-Oct-05 21:00N 36°44' W 009°06'711.5
2017-Oct-05 20:24N 36°42' W 008°58'511.2
2017-Oct-05 20:00N 36°39' W 008°53'  
Track history (hours):
 
Tides and Currents Weather Stations Pressure Air Temp Water Temp Dewpoint Dewpoint Depression Visibility Wind Speed Wind Dir Waves Ship Positions

Ocean Hope

Last reported at 2017-Oct-14 17:43 UTC. Time now 2017-Oct-19 11:13 UTC.
Position N 27°34' W 015°16'.

Length 181 m; draft 7.8 m.

Type: Cargo ship. MMSI: 373402000.

Date/timePositionNaut miles runAvg speedWind from/ knotsBaromVisibWave heightAir tempDewpointWater temp
2017-Oct-14 17:43N 27°34' W 015°16'312.1
2017-Oct-14 17:30N 27°36' W 015°15'612.3
2017-Oct-14 17:00N 27°42' W 015°12'612.5
2017-Oct-14 16:30N 27°48' W 015°10'612.9
2017-Oct-14 16:00N 27°54' W 015°07'612.9
2017-Oct-14 15:30N 28°00' W 015°06'5 9.8
2017-Oct-14 15:00N 28°04' W 015°10'611.8
2017-Oct-14 14:30N 28°05' W 015°16'611.2
2017-Oct-14 14:00N 28°06' W 015°22'2 3.7
2017-Oct-14 13:28N 28°07' W 015°24'0 0.1
2017-Oct-14 12:58N 28°07' W 015°24'0 0.1
2017-Oct-14 12:28N 28°07' W 015°25'0 0.1
2017-Oct-14 11:58N 28°07' W 015°24'0 0.1
2017-Oct-14 11:28N 28°07' W 015°25'0 0.1
2017-Oct-14 10:58N 28°07' W 015°24'0 0.1
2017-Oct-14 10:28N 28°07' W 015°25'0 0.1
2017-Oct-14 09:58N 28°07' W 015°24'0 0.3
2017-Oct-14 09:28N 28°07' W 015°24'0 0.2
2017-Oct-14 08:58N 28°07' W 015°24'1 1.5
2017-Oct-14 08:30N 28°07' W 015°24'1 2.6
2017-Oct-14 08:00N 28°07' W 015°22'0 0.1
2017-Oct-14 07:30N 28°07' W 015°22'1 1.5
2017-Oct-14 07:00N 28°07' W 015°21'2 3.2
2017-Oct-14 06:30N 28°07' W 015°20'4 7.2
2017-Oct-14 06:00N 28°07' W 015°16'4 7.7
2017-Oct-14 05:30N 28°07' W 015°11'4 7.4
2017-Oct-14 05:00N 28°07' W 015°07'4 7.3
2017-Oct-14 04:30N 28°07' W 015°03'5 9.2
2017-Oct-14 04:00N 28°10' W 014°59'4 8.6
2017-Oct-14 03:30N 28°14' W 014°57'5 9.3
2017-Oct-14 03:00N 28°18' W 014°55'612.3
2017-Oct-14 02:30N 28°24' W 014°53'612.4
2017-Oct-14 02:00N 28°30' W 014°51'612.5
2017-Oct-14 01:30N 28°36' W 014°48'612.6
2017-Oct-14 01:00N 28°42' W 014°46'612.6
2017-Oct-14 00:30N 28°48' W 014°44'612.8
2017-Oct-14 00:00N 28°54' W 014°41'612.7
2017-Oct-13 23:30N 28°60' W 014°38'612.6
2017-Oct-13 23:00N 29°06' W 014°36'612.4
2017-Oct-13 22:30N 29°12' W 014°33'612.4
2017-Oct-13 22:00N 29°17' W 014°31'612.1
2017-Oct-13 21:30N 29°23' W 014°29'611.9
2017-Oct-13 21:00N 29°29' W 014°26'612.0
2017-Oct-13 20:28N 29°35' W 014°24'612.1
2017-Oct-13 19:57N 29°41' W 014°21'512.0
2017-Oct-13 19:30N 29°46' W 014°19'611.9
2017-Oct-13 19:00N 29°51' W 014°17'611.8
2017-Oct-13 18:30N 29°57' W 014°15'611.6
2017-Oct-13 18:00N 30°02' W 014°12'611.5
2017-Oct-13 17:30N 30°08' W 014°10'611.5
2017-Oct-13 17:00N 30°13' W 014°08'611.5
2017-Oct-13 16:30N 30°18' W 014°05'611.5
2017-Oct-13 16:00N 30°24' W 014°03'611.6
2017-Oct-13 15:30N 30°29' W 014°01'611.6
2017-Oct-13 15:00N 30°35' W 013°59'611.5
2017-Oct-13 14:30N 30°40' W 013°56'611.4
2017-Oct-13 14:00N 30°45' W 013°54'611.5
2017-Oct-13 13:30N 30°51' W 013°52'18212.2
2017-Oct-12 22:37N 33°42' W 012°38'112.3
2017-Oct-12 22:30N 33°43' W 012°38'712.4
2017-Oct-12 21:57N 33°50' W 012°35'21112.1
2017-Oct-12 04:26N 37°04' W 010°53'512.1
2017-Oct-12 04:00N 37°09' W 010°51'2512.2
2017-Oct-12 01:57N 37°33' W 010°44'511.9
2017-Oct-12 01:30N 37°38' W 010°43'1711.7
2017-Oct-12 00:03N 37°55' W 010°37'111.7
2017-Oct-12 00:00N 37°56' W 010°37'611.6
2017-Oct-11 23:31N 38°01' W 010°35'611.5
2017-Oct-11 23:00N 38°07' W 010°34'611.7
2017-Oct-11 22:30N 38°12' W 010°32'612.2
2017-Oct-11 22:00N 38°18' W 010°30'612.6
2017-Oct-11 21:30N 38°24' W 010°28'612.4
2017-Oct-11 21:01N 38°30' W 010°26'612.5
2017-Oct-11 20:30N 38°36' W 010°24'612.4
2017-Oct-11 20:00N 38°42' W 010°22'612.6
2017-Oct-11 19:30N 38°48' W 010°21'713.1
2017-Oct-11 19:01N 38°55' W 010°18'713.6
2017-Oct-11 18:31N 39°01' W 010°15'612.5
2017-Oct-11 18:00N 39°07' W 010°12'612.0
2017-Oct-11 17:30N 39°12' W 010°09'612.1
2017-Oct-11 17:00N 39°18' W 010°06'103 2.1
2017-Oct-09 14:51N 40°39' W 008°43'0 0.0
2017-Oct-09 14:27N 40°39' W 008°43'0 0.0
2017-Oct-09 14:00N 40°39' W 008°43'0 0.0
2017-Oct-09 13:27N 40°39' W 008°43'0 0.0
2017-Oct-09 13:00N 40°39' W 008°43'0 0.0
2017-Oct-09 12:27N 40°39' W 008°43'  
2017-Oct-07 01:59N 40°41' W 008°49'0 0.0
2017-Oct-06 21:59N 40°41' W 008°49'0 0.1
2017-Oct-06 21:29N 40°41' W 008°49'1 0.3
2017-Oct-06 19:01N 40°40' W 008°48'0 4.6
2017-Oct-06 19:00N 40°40' W 008°48'9 9.1
2017-Oct-06 18:00N 40°32' W 008°54'612.0
2017-Oct-06 17:30N 40°27' W 008°59'611.9
2017-Oct-06 17:00N 40°22' W 009°04'711.8
2017-Oct-06 16:25N 40°17' W 009°09'512.1
2017-Oct-06 16:00N 40°13' W 009°13'612.1
2017-Oct-06 15:30N 40°08' W 009°17'612.2
2017-Oct-06 15:00N 40°03' W 009°22'612.0
2017-Oct-06 14:30N 39°58' W 009°27'612.2
2017-Oct-06 14:00N 39°53' W 009°31'612.4
2017-Oct-06 13:30N 39°48' W 009°36'612.2
2017-Oct-06 13:00N 39°43' W 009°39'612.4
2017-Oct-06 12:30N 39°37' W 009°43'612.3
2017-Oct-06 12:00N 39°31' W 009°45'612.1
2017-Oct-06 11:30N 39°26' W 009°48'611.8
2017-Oct-06 11:00N 39°20' W 009°51'612.0
2017-Oct-06 10:30N 39°14' W 009°51'611.8
2017-Oct-06 10:00N 39°08' W 009°51'611.8
2017-Oct-06 09:30N 39°02' W 009°51'611.9
2017-Oct-06 09:00N 38°56' W 009°51'611.4
2017-Oct-06 08:30N 38°51' W 009°51'611.5
2017-Oct-06 08:00N 38°45' W 009°51'611.7
2017-Oct-06 07:30N 38°39' W 009°50'611.9
2017-Oct-06 07:00N 38°33' W 009°49'611.5
2017-Oct-06 06:30N 38°28' W 009°48'611.8
2017-Oct-06 06:00N 38°22' W 009°46'611.8
2017-Oct-06 05:30N 38°16' W 009°44'611.8
2017-Oct-06 05:00N 38°10' W 009°42'611.9
2017-Oct-06 04:30N 38°05' W 009°40'611.9
2017-Oct-06 04:00N 37°59' W 009°39'612.0
2017-Oct-06 03:30N 37°53' W 009°37'612.0
2017-Oct-06 03:00N 37°47' W 009°35'612.0
2017-Oct-06 02:30N 37°41' W 009°34'612.0
2017-Oct-06 02:00N 37°35' W 009°32'612.1
2017-Oct-06 01:30N 37°30' W 009°30'612.2
2017-Oct-06 01:00N 37°24' W 009°28'611.8
2017-Oct-06 00:30N 37°18' W 009°27'611.7
2017-Oct-06 00:00N 37°12' W 009°25'611.7
2017-Oct-05 23:30N 37°06' W 009°24'611.5
2017-Oct-05 23:00N 37°01' W 009°21'611.0
2017-Oct-05 22:30N 36°56' W 009°20'510.5
2017-Oct-05 22:00N 36°51' W 009°16'611.1
2017-Oct-05 21:30N 36°47' W 009°12'510.8
2017-Oct-05 21:00N 36°44' W 009°06'711.5
2017-Oct-05 20:24N 36°42' W 008°58'511.2
2017-Oct-05 20:00N 36°39' W 008°53'  

Dump ship's entire track history